Time;durP1;ratioP1;P1;durP2;ratioP2;P2;SDS_P1;SDS_P2;PMS_P1;PMS_P2;Temp;Humidity;BMP_temperature;BMP_pressure;BME280_temperature;BME280_humidity;BME280_pressure;Samples;Min_cycle;Max_cycle;Signal;HPM_P1;HPM_P2
2023/09/06 00:00:48;;;;;;;4.35;1.30;;;;;;;;;;4938242;29;20043;-79
2023/09/06 00:03:19;;;;;;;7.15;1.60;;;;;;;;;;4953857;29;20039;-81
2023/09/06 00:05:53;;;;;;;4.88;1.70;;;;;;;;;;4954913;29;20502;-80
2023/09/06 00:08:23;;;;;;;5.43;1.67;;;;;;;;;;4954822;28;20047;-82
2023/09/06 00:10:55;;;;;;;3.20;1.52;;;;;;;;;;4955802;29;20498;-81
2023/09/06 00:13:26;;;;;;;3.80;1.40;;;;;;;;;;4955097;29;20050;-81
2023/09/06 00:15:57;;;;;;;4.47;2.00;;;;;;;;;;4954985;29;20051;-83
2023/09/06 00:18:28;;;;;;;5.13;1.70;;;;;;;;;;4954557;29;20505;-81
2023/09/06 00:21:00;;;;;;;3.55;1.67;;;;;;;;;;4954791;29;20043;-80
2023/09/06 00:23:32;;;;;;;4.05;2.00;;;;;;;;;;4954451;29;20054;-81
2023/09/06 00:26:06;;;;;;;5.15;1.67;;;;;;;;;;4955076;29;20043;-82
2023/09/06 00:28:38;;;;;;;4.38;1.70;;;;;;;;;;4955329;29;20066;-82
2023/09/06 00:34:59;;;;;;;5.03;2.47;;;;;;;;;;4955423;28;20051;-81
2023/09/06 00:37:40;;;;;;;5.68;1.80;;;;;;;;;;4942936;28;20145;-84
2023/09/06 00:40:18;;;;;;;6.70;1.55;;;;;;;;;;4956854;29;20043;-81
2023/09/06 00:43:01;;;;;;;7.35;1.75;;;;;;;;;;4946721;28;20058;-81
2023/09/06 00:45:37;;;;;;;5.90;1.60;;;;;;;;;;4957096;28;20405;-83
2023/09/06 00:48:11;;;;;;;4.90;1.80;;;;;;;;;;4973487;28;20363;-83
2023/09/06 00:50:43;;;;;;;6.57;2.17;;;;;;;;;;4972199;28;20038;-82
2023/09/06 00:53:15;;;;;;;4.60;1.60;;;;;;;;;;4958678;28;20050;-81
2023/09/06 00:56:11;;;;;;;;;;;;;;;;;;4971699;28;20493;-82
2023/09/06 00:58:43;;;;;;;3.47;1.50;;;;;;;;;;4958662;28;19929;-83
2023/09/06 01:01:13;;;;;;;;;;;;;;;;;;4957178;29;20066;-84
2023/09/06 01:03:44;;;;;;;4.85;1.50;;;;;;;;;;4956664;29;19926;-82
2023/09/06 01:06:21;;;;;;;5.75;1.73;;;;;;;;;;4956696;29;20039;-81
2023/09/06 01:09:05;;;;;;;5.25;1.65;;;;;;;;;;4938245;29;20058;-81
2023/09/06 01:11:39;;;;;;;4.68;1.75;;;;;;;;;;4938378;29;20058;-82
2023/09/06 01:14:09;;;;;;;3.45;1.55;;;;;;;;;;4941308;28;20043;-82
2023/09/06 01:16:47;;;;;;;5.25;2.00;;;;;;;;;;4942106;28;20053;-81
2023/09/06 01:19:19;;;;;;;8.02;2.03;;;;;;;;;;4957834;28;20047;-81
2023/09/06 01:22:05;;;;;;;6.15;2.45;;;;;;;;;;4974595;28;20039;-81
2023/09/06 01:24:39;;;;;;;11.80;2.28;;;;;;;;;;4957445;28;20054;-81
2023/09/06 01:27:12;;;;;;;6.90;2.33;;;;;;;;;;4973779;28;20038;-82
2023/09/06 01:29:47;;;;;;;5.70;2.03;;;;;;;;;;4941644;28;20047;-81
2023/09/06 01:32:18;;;;;;;7.47;1.95;;;;;;;;;;4946772;29;20058;-80
2023/09/06 01:34:48;;;;;;;5.15;2.20;;;;;;;;;;4939006;29;20047;-82
2023/09/06 01:37:21;;;;;;;5.80;2.10;;;;;;;;;;4938783;29;20051;-81
2023/09/06 01:39:55;;;;;;;7.13;2.20;;;;;;;;;;4939624;29;20050;-81
2023/09/06 01:42:26;;;;;;;5.85;2.42;;;;;;;;;;4938304;29;20152;-80
2023/09/06 01:44:57;;;;;;;5.60;2.45;;;;;;;;;;4956094;29;20362;-80
2023/09/06 01:47:29;;;;;;;7.10;2.42;;;;;;;;;;4949926;28;20059;-80
2023/09/06 01:50:05;;;;;;;6.38;2.60;;;;;;;;;;4958952;28;20038;-81
2023/09/06 01:52:36;;;;;;;7.53;2.30;;;;;;;;;;4957745;28;20062;-80
2023/09/06 01:55:09;;;;;;;8.52;2.47;;;;;;;;;;4974330;28;20454;-80
2023/09/06 01:57:40;;;;;;;7.20;2.28;;;;;;;;;;4975276;28;20043;-80
2023/09/06 02:02:49;;;;;;;7.57;1.98;;;;;;;;;;4976505;28;20043;-81
2023/09/06 02:05:26;;;;;;;5.10;1.88;;;;;;;;;;4974802;28;20046;-81
2023/09/06 02:07:58;;;;;;;6.07;1.88;;;;;;;;;;4957222;28;20098;-81
2023/09/06 02:10:33;;;;;;;3.72;1.73;;;;;;;;;;4974914;28;20047;-80
2023/09/06 02:13:03;;;;;;;7.47;1.55;;;;;;;;;;4939936;28;20519;-81
2023/09/06 02:15:36;;;;;;;5.97;2.05;;;;;;;;;;4956786;28;20054;-81
2023/09/06 02:18:15;;;;;;;7.53;2.10;;;;;;;;;;4941594;28;20474;-82
2023/09/06 02:20:50;;;;;;;9.05;1.98;;;;;;;;;;4974486;28;20578;-82
2023/09/06 02:23:20;;;;;;;6.40;2.20;;;;;;;;;;4974870;28;20035;-81
2023/09/06 02:25:50;;;;;;;7.25;2.92;;;;;;;;;;4975080;28;20052;-82
2023/09/06 02:28:22;;;;;;;9.82;2.60;;;;;;;;;;4957474;28;20058;-81
2023/09/06 02:30:56;;;;;;;7.72;2.45;;;;;;;;;;4974923;28;20046;-81
2023/09/06 02:33:28;;;;;;;;;;;;;;;;;;4956632;28;20057;-82
2023/09/06 02:35:59;;;;;;;11.15;3.15;;;;;;;;;;4956802;28;19918;-81
2023/09/06 02:38:33;;;;;;;7.53;2.60;;;;;;;;;;4974475;28;20043;-82
2023/09/06 02:41:05;;;;;;;6.70;2.17;;;;;;;;;;4973939;28;20047;-81
2023/09/06 02:43:38;;;;;;;6.88;2.72;;;;;;;;;;4974242;28;20035;-82
2023/09/06 02:46:12;;;;;;;11.52;3.63;;;;;;;;;;4956398;28;20043;-83
2023/09/06 02:48:47;;;;;;;8.55;3.88;;;;;;;;;;4972880;28;20046;-81
2023/09/06 02:51:18;;;;;;;10.27;3.38;;;;;;;;;;4941118;28;20049;-81
2023/09/06 02:53:48;;;;;;;7.10;3.08;;;;;;;;;;4941472;28;20463;-81
2023/09/06 02:56:19;;;;;;;7.22;3.00;;;;;;;;;;4975347;28;20039;-80
2023/09/06 02:58:51;;;;;;;7.25;3.00;;;;;;;;;;4954963;28;20046;-83
2023/09/06 03:01:25;;;;;;;11.48;4.05;;;;;;;;;;4955923;29;20374;-81
2023/09/06 03:03:58;;;;;;;6.43;2.83;;;;;;;;;;4956172;29;20070;-81
2023/09/06 03:06:37;;;;;;;9.70;2.45;;;;;;;;;;4955816;29;20046;-80
2023/09/06 03:09:10;;;;;;;10.82;3.05;;;;;;;;;;4937835;29;20051;-81
2023/09/06 03:11:43;;;;;;;7.63;2.45;;;;;;;;;;4922725;29;20047;-81
2023/09/06 03:14:17;;;;;;;6.25;2.13;;;;;;;;;;4937622;29;20051;-82
2023/09/06 03:16:53;;;;;;;4.40;2.08;;;;;;;;;;4922498;29;20058;-82
2023/09/06 03:19:27;;;;;;;5.80;2.22;;;;;;;;;;4939378;29;20047;-80
2023/09/06 03:22:06;;;;;;;7.15;2.85;;;;;;;;;;4955558;29;20383;-80
2023/09/06 03:24:41;;;;;;;8.07;2.85;;;;;;;;;;4922206;29;20044;-81
2023/09/06 03:27:16;;;;;;;7.25;2.30;;;;;;;;;;4955591;29;20039;-81
2023/09/06 03:29:50;;;;;;;7.50;2.72;;;;;;;;;;4955292;29;20035;-81
2023/09/06 03:32:24;;;;;;;8.27;2.83;;;;;;;;;;4937579;29;20384;-82
2023/09/06 03:34:58;;;;;;;9.65;2.90;;;;;;;;;;4955089;29;20050;-81
2023/09/06 03:37:32;;;;;;;6.45;2.92;;;;;;;;;;4939638;29;20035;-81
2023/09/06 03:40:12;;;;;;;11.88;3.08;;;;;;;;;;4938244;29;20047;-82
2023/09/06 03:42:44;;;;;;;8.27;2.90;;;;;;;;;;4955220;29;20054;-81
2023/09/06 03:45:21;;;;;;;5.15;2.67;;;;;;;;;;4962470;28;20039;-80
2023/09/06 03:47:57;;;;;;;7.05;2.80;;;;;;;;;;4961131;29;20050;-80
2023/09/06 03:50:29;;;;;;;6.35;2.58;;;;;;;;;;4974955;29;20049;-80
2023/09/06 03:53:04;;;;;;;8.80;2.95;;;;;;;;;;4961698;28;20035;-83
2023/09/06 03:55:34;;;;;;;9.80;2.78;;;;;;;;;;4961781;28;20051;-81
2023/09/06 03:58:10;;;;;;;6.15;2.95;;;;;;;;;;4958729;28;20058;-81
2023/09/06 04:00:44;;;;;;;6.45;2.72;;;;;;;;;;4937332;29;20483;-81
2023/09/06 04:03:26;;;;;;;9.77;2.83;;;;;;;;;;4937924;29;20069;-79
2023/09/06 04:05:57;;;;;;;8.55;3.10;;;;;;;;;;4937325;29;20055;-79
2023/09/06 04:08:28;;;;;;;9.15;3.13;;;;;;;;;;4954557;28;20047;-79
2023/09/06 04:11:05;;;;;;;7.03;2.65;;;;;;;;;;4924294;29;20051;-79
2023/09/06 04:13:39;;;;;;;9.98;3.00;;;;;;;;;;4958909;29;20043;-79
2023/09/06 04:16:11;;;;;;;12.15;3.83;;;;;;;;;;4941153;29;20047;-79
2023/09/06 04:18:44;;;;;;;9.20;2.97;;;;;;;;;;4940964;29;20047;-79
2023/09/06 04:21:14;;;;;;;10.45;3.47;;;;;;;;;;4958592;29;20035;-79
2023/09/06 04:23:48;;;;;;;10.57;3.55;;;;;;;;;;4958804;29;20043;-79
2023/09/06 04:26:20;;;;;;;8.45;3.22;;;;;;;;;;4940501;29;20058;-79
2023/09/06 04:28:52;;;;;;;9.30;3.60;;;;;;;;;;4941114;29;20070;-79
2023/09/06 04:31:25;;;;;;;10.05;3.90;;;;;;;;;;4940327;29;20043;-79
2023/09/06 04:34:02;;;;;;;8.77;3.70;;;;;;;;;;4958782;29;20043;-79
2023/09/06 04:36:36;;;;;;;9.45;3.75;;;;;;;;;;4941856;29;20509;-79
2023/09/06 04:39:09;;;;;;;7.38;3.30;;;;;;;;;;4940714;29;20051;-79
2023/09/06 04:41:41;;;;;;;10.32;2.90;;;;;;;;;;4940431;29;20047;-80
2023/09/06 04:44:12;;;;;;;7.22;3.60;;;;;;;;;;4958681;29;20047;-79
2023/09/06 04:46:43;;;;;;;7.47;3.22;;;;;;;;;;4940445;29;20047;-79
2023/09/06 04:49:17;;;;;;;9.18;3.40;;;;;;;;;;4940733;29;20058;-79
2023/09/06 04:51:48;;;;;;;6.18;3.13;;;;;;;;;;4940418;29;20062;-80
2023/09/06 04:54:21;;;;;;;9.48;3.30;;;;;;;;;;4940054;29;20070;-78
2023/09/06 04:56:53;;;;;;;8.68;3.60;;;;;;;;;;4940222;29;20367;-80
2023/09/06 04:59:24;;;;;;;16.17;4.60;;;;;;;;;;4940577;29;20048;-78
2023/09/06 05:01:57;;;;;;;10.18;3.90;;;;;;;;;;4940494;29;20051;-78
2023/09/06 05:04:30;;;;;;;11.23;3.80;;;;;;;;;;4925020;29;20047;-79
2023/09/06 05:07:00;;;;;;;8.82;3.80;;;;;;;;;;4924837;29;20047;-79
2023/09/06 05:09:34;;;;;;;9.10;4.30;;;;;;;;;;4939714;29;20055;-80
2023/09/06 05:12:06;;;;;;;9.23;4.05;;;;;;;;;;4939993;29;20047;-80
2023/09/06 05:14:37;;;;;;;13.30;4.43;;;;;;;;;;4941029;29;20066;-78
2023/09/06 05:17:07;;;;;;;12.43;4.72;;;;;;;;;;4940045;29;20058;-78
2023/09/06 05:19:40;;;;;;;10.43;3.97;;;;;;;;;;4925268;29;20043;-77
2023/09/06 05:22:13;;;;;;;10.02;3.67;;;;;;;;;;4939700;29;20051;-79
2023/09/06 05:24:45;;;;;;;10.63;3.80;;;;;;;;;;4939697;29;20051;-78
2023/09/06 05:27:17;;;;;;;9.70;3.72;;;;;;;;;;4939568;29;20153;-78
2023/09/06 05:29:49;;;;;;;8.98;3.10;;;;;;;;;;4939574;29;20054;-80
2023/09/06 05:32:20;;;;;;;7.75;3.50;;;;;;;;;;4939359;29;20044;-80
2023/09/06 05:34:50;;;;;;;11.95;4.18;;;;;;;;;;4939493;29;20039;-80
2023/09/06 05:37:20;;;;;;;12.25;4.20;;;;;;;;;;4957695;28;20047;-79
2023/09/06 05:39:53;;;;;;;12.98;4.15;;;;;;;;;;4957254;29;20036;-79
2023/09/06 05:42:27;;;;;;;8.13;3.83;;;;;;;;;;4924001;29;20386;-79
2023/09/06 05:44:59;;;;;;;11.23;4.70;;;;;;;;;;4939585;29;20505;-79
2023/09/06 05:47:33;;;;;;;14.35;4.57;;;;;;;;;;4939540;29;20047;-80
2023/09/06 05:50:07;;;;;;;17.85;5.90;;;;;;;;;;4939509;29;20438;-81
2023/09/06 05:52:38;;;;;;;14.77;5.78;;;;;;;;;;4939574;29;20050;-80
2023/09/06 05:55:14;;;;;;;20.90;7.55;;;;;;;;;;4939208;29;20488;-79
2023/09/06 05:57:47;;;;;;;17.38;6.95;;;;;;;;;;4939595;29;20051;-81
2023/09/06 06:00:21;;;;;;;16.88;7.38;;;;;;;;;;4939420;28;20051;-80
2023/09/06 06:02:59;;;;;;;19.92;7.38;;;;;;;;;;4951533;28;20497;-80
2023/09/06 06:05:31;;;;;;;17.52;7.35;;;;;;;;;;4958416;28;20050;-78
2023/09/06 06:08:02;;;;;;;14.35;6.60;;;;;;;;;;4958042;28;20051;-79
2023/09/06 06:10:34;;;;;;;16.48;6.97;;;;;;;;;;4975773;28;20054;-80
2023/09/06 06:13:11;;;;;;;15.57;6.97;;;;;;;;;;4976068;28;20039;-79
2023/09/06 06:15:43;;;;;;;16.08;6.72;;;;;;;;;;4975828;28;20042;-80
2023/09/06 06:18:16;;;;;;;16.60;5.93;;;;;;;;;;4957726;28;20378;-80
2023/09/06 06:20:46;;;;;;;12.85;4.88;;;;;;;;;;4969006;28;20054;-79
2023/09/06 06:23:15;;;;;;;10.55;4.60;;;;;;;;;;4975381;28;20343;-78
2023/09/06 06:25:47;;;;;;;12.45;4.80;;;;;;;;;;4957490;28;20050;-80
2023/09/06 06:28:21;;;;;;;10.75;4.40;;;;;;;;;;4957228;28;20057;-80
2023/09/06 06:30:51;;;;;;;10.73;4.00;;;;;;;;;;4975258;28;20042;-79
2023/09/06 06:33:21;;;;;;;7.82;3.65;;;;;;;;;;4957961;28;20058;-79
2023/09/06 06:35:54;;;;;;;10.05;3.85;;;;;;;;;;4974717;28;20054;-79
2023/09/06 06:38:25;;;;;;;6.50;3.30;;;;;;;;;;4972987;28;20363;-79
2023/09/06 06:40:55;;;;;;;12.32;3.65;;;;;;;;;;4972862;28;20046;-78
2023/09/06 06:43:27;;;;;;;10.27;3.10;;;;;;;;;;4973124;28;20054;-79
2023/09/06 06:45:58;;;;;;;8.38;3.40;;;;;;;;;;4972774;28;20042;-79
2023/09/06 06:48:32;;;;;;;7.28;2.72;;;;;;;;;;4955221;28;20050;-79
2023/09/06 06:51:03;;;;;;;7.00;3.17;;;;;;;;;;4972963;28;20521;-79
2023/09/06 06:53:33;;;;;;;6.05;2.80;;;;;;;;;;4973528;28;20497;-78
2023/09/06 06:56:05;;;;;;;9.30;3.72;;;;;;;;;;4975297;28;20047;-79
2023/09/06 06:58:37;;;;;;;10.13;2.80;;;;;;;;;;4957181;28;20394;-78
2023/09/06 07:01:07;;;;;;;8.45;3.30;;;;;;;;;;4957550;28;20050;-78
2023/09/06 07:03:37;;;;;;;7.22;2.75;;;;;;;;;;4975493;28;20066;-78
2023/09/06 07:06:09;;;;;;;7.22;3.42;;;;;;;;;;4975246;28;20050;-79
2023/09/06 07:08:40;;;;;;;8.10;2.88;;;;;;;;;;4974692;28;20050;-79
2023/09/06 07:11:12;;;;;;;11.18;3.38;;;;;;;;;;4957789;28;20463;-79
2023/09/06 07:13:45;;;;;;;8.73;3.00;;;;;;;;;;4956803;28;20066;-77
2023/09/06 07:16:20;;;;;;;6.90;3.03;;;;;;;;;;4975138;28;20047;-79
2023/09/06 07:18:53;;;;;;;8.23;3.10;;;;;;;;;;4975254;28;20047;-79
2023/09/06 07:21:25;;;;;;;7.70;3.33;;;;;;;;;;4974681;28;20498;-79
2023/09/06 07:23:55;;;;;;;7.70;3.05;;;;;;;;;;4974632;28;20470;-79
2023/09/06 07:26:27;;;;;;;8.75;3.17;;;;;;;;;;4974434;28;20035;-79
2023/09/06 07:28:58;;;;;;;8.40;3.10;;;;;;;;;;4941309;28;20080;-79
2023/09/06 07:31:30;;;;;;;13.10;3.83;;;;;;;;;;4956500;28;20062;-78
2023/09/06 07:34:00;;;;;;;9.75;3.83;;;;;;;;;;4974413;28;20051;-79
2023/09/06 07:36:30;;;;;;;9.02;3.80;;;;;;;;;;4974366;28;20047;-78
2023/09/06 07:39:04;;;;;;;10.40;3.63;;;;;;;;;;4958077;28;20049;-78
2023/09/06 07:41:37;;;;;;;11.50;4.15;;;;;;;;;;4974319;28;20050;-79
2023/09/06 07:44:11;;;;;;;10.30;4.35;;;;;;;;;;4974575;28;20072;-79
2023/09/06 07:46:48;;;;;;;11.35;4.07;;;;;;;;;;4957576;28;20038;-79
2023/09/06 07:49:19;;;;;;;7.82;3.85;;;;;;;;;;4974438;28;20042;-79
2023/09/06 07:51:51;;;;;;;12.60;4.07;;;;;;;;;;4974589;28;20050;-78
2023/09/06 07:54:23;;;;;;;9.75;3.42;;;;;;;;;;4974360;28;20042;-78
2023/09/06 07:56:54;;;;;;;9.45;3.58;;;;;;;;;;4974100;28;20039;-79
2023/09/06 07:59:25;;;;;;;12.38;3.58;;;;;;;;;;4974092;28;20043;-79
2023/09/06 08:01:56;;;;;;;9.20;3.70;;;;;;;;;;4974402;28;20053;-80
2023/09/06 08:04:26;;;;;;;11.85;4.22;;;;;;;;;;4974626;28;20043;-78
2023/09/06 08:06:56;;;;;;;9.60;4.15;;;;;;;;;;4974443;28;20039;-78
2023/09/06 08:09:28;;;;;;;14.90;4.50;;;;;;;;;;4956576;28;20054;-77
2023/09/06 08:12:03;;;;;;;11.70;4.60;;;;;;;;;;4973996;28;20046;-78
2023/09/06 08:14:38;;;;;;;11.50;4.55;;;;;;;;;;4973837;28;20047;-78
2023/09/06 08:17:10;;;;;;;14.75;5.10;;;;;;;;;;4973904;28;20045;-79
2023/09/06 08:19:42;;;;;;;11.98;5.18;;;;;;;;;;4977141;28;20050;-78
2023/09/06 08:22:12;;;;;;;13.32;4.93;;;;;;;;;;4992626;28;20047;-77
2023/09/06 08:24:42;;;;;;;11.38;5.35;;;;;;;;;;4974367;28;20050;-77
2023/09/06 08:27:14;;;;;;;12.07;5.78;;;;;;;;;;4997642;28;20034;-80
2023/09/06 08:29:46;;;;;;;10.75;4.90;;;;;;;;;;4997977;28;20030;-80
2023/09/06 08:32:20;;;;;;;10.55;5.00;;;;;;;;;;4990993;28;20046;-78
2023/09/06 08:34:53;;;;;;;15.38;4.45;;;;;;;;;;4957644;28;20070;-79
2023/09/06 08:37:22;;;;;;;9.63;3.97;;;;;;;;;;4974163;28;20492;-78
2023/09/06 08:39:53;;;;;;;12.45;4.70;;;;;;;;;;4972647;28;20073;-78
2023/09/06 08:42:26;;;;;;;11.45;4.72;;;;;;;;;;4974394;28;20058;-78
2023/09/06 08:44:57;;;;;;;13.50;4.32;;;;;;;;;;4973663;28;20042;-78
2023/09/06 08:47:28;;;;;;;9.48;3.92;;;;;;;;;;4973847;28;20134;-78
2023/09/06 08:50:00;;;;;;;15.10;4.68;;;;;;;;;;4973777;28;20039;-78
2023/09/06 08:52:33;;;;;;;9.70;3.60;;;;;;;;;;4974061;28;20043;-78
2023/09/06 08:55:08;;;;;;;17.55;4.90;;;;;;;;;;4957234;28;20046;-78
2023/09/06 08:57:41;;;;;;;13.43;4.63;;;;;;;;;;4976798;28;20042;-78
2023/09/06 09:00:14;;;;;;;16.35;4.60;;;;;;;;;;4977082;28;20038;-78
2023/09/06 09:02:46;;;;;;;12.80;5.47;;;;;;;;;;4960642;28;20046;-78
2023/09/06 09:05:23;;;;;;;11.00;4.65;;;;;;;;;;4959792;28;20047;-78
2023/09/06 09:07:59;;;;;;;9.45;3.80;;;;;;;;;;4976260;28;20421;-78
2023/09/06 09:10:33;;;;;;;7.88;3.38;;;;;;;;;;4976691;28;20047;-79
2023/09/06 09:13:15;;;;;;;8.18;3.50;;;;;;;;;;4976524;28;20035;-78
2023/09/06 09:15:52;;;;;;;11.82;3.58;;;;;;;;;;4977541;28;20130;-78
2023/09/06 09:18:22;;;;;;;8.98;4.03;;;;;;;;;;4977059;28;20054;-78
2023/09/06 09:20:54;;;;;;;11.13;5.30;;;;;;;;;;4976800;28;20053;-79
2023/09/06 09:23:26;;;;;;;10.10;4.70;;;;;;;;;;4959130;28;20115;-78
2023/09/06 09:25:58;;;;;;;10.38;4.53;;;;;;;;;;4976734;28;20042;-78
2023/09/06 09:28:33;;;;;;;13.93;4.78;;;;;;;;;;4976737;28;20043;-79
2023/09/06 09:31:05;;;;;;;13.95;4.25;;;;;;;;;;4976671;28;20047;-79
2023/09/06 09:33:37;;;;;;;11.70;4.65;;;;;;;;;;4975918;28;20039;-77
2023/09/06 09:36:12;;;;;;;14.15;5.32;;;;;;;;;;4976202;28;20486;-79
2023/09/06 09:38:49;;;;;;;11.45;4.57;;;;;;;;;;4976332;28;20386;-79
2023/09/06 09:41:21;;;;;;;8.55;4.05;;;;;;;;;;4976554;28;20042;-78
2023/09/06 09:44:19;;;;;;;15.13;4.63;;;;;;;;;;4976383;28;20388;-78
2023/09/06 09:46:58;;;;;;;7.97;3.65;;;;;;;;;;4976326;28;20043;-79
2023/09/06 09:49:45;;;;;;;12.85;3.92;;;;;;;;;;4958758;28;20050;-79
2023/09/06 09:52:16;;;;;;;10.68;3.75;;;;;;;;;;4958477;28;20043;-79
2023/09/06 09:54:50;;;;;;;9.52;3.78;;;;;;;;;;4976556;28;20042;-78
2023/09/06 09:57:23;;;;;;;10.70;4.10;;;;;;;;;;4958303;28;20367;-79
2023/09/06 09:59:58;;;;;;;8.48;3.42;;;;;;;;;;4975939;28;20051;-79
2023/09/06 10:02:30;;;;;;;7.45;3.70;;;;;;;;;;4958858;28;20470;-78
2023/09/06 10:05:16;;;;;;;14.63;4.20;;;;;;;;;;4975794;28;20042;-79
2023/09/06 10:07:49;;;;;;;14.18;4.78;;;;;;;;;;4974542;28;20134;-79
2023/09/06 10:10:20;;;;;;;8.20;3.80;;;;;;;;;;4976266;28;20054;-80
2023/09/06 10:12:53;;;;;;;10.70;4.07;;;;;;;;;;4975973;28;20489;-79
2023/09/06 10:15:25;;;;;;;8.70;4.38;;;;;;;;;;4976251;28;20057;-78
2023/09/06 10:17:57;;;;;;;11.52;4.50;;;;;;;;;;4975959;28;20478;-79
2023/09/06 10:20:32;;;;;;;11.68;3.78;;;;;;;;;;4958343;28;20043;-79
2023/09/06 10:23:04;;;;;;;12.40;4.25;;;;;;;;;;4975785;28;20046;-79
2023/09/06 10:25:41;;;;;;;11.48;4.30;;;;;;;;;;4958130;28;20054;-77
2023/09/06 10:28:14;;;;;;;11.05;4.07;;;;;;;;;;4959222;28;20362;-77
2023/09/06 10:30:51;;;;;;;8.75;3.78;;;;;;;;;;4975858;28;20386;-79
2023/09/06 10:33:42;;;;;;;9.93;4.57;;;;;;;;;;4975368;28;20043;-79
2023/09/06 10:36:16;;;;;;;8.60;3.65;;;;;;;;;;4975757;28;20042;-79
2023/09/06 10:38:58;;;;;;;;;;;;;;;;;;4976291;28;20047;-78
2023/09/06 10:41:28;;;;;;;12.30;3.88;;;;;;;;;;4975517;28;19918;-78
2023/09/06 10:44:04;;;;;;;17.40;5.88;;;;;;;;;;4975945;28;20141;-79
2023/09/06 10:46:37;;;;;;;15.00;5.60;;;;;;;;;;4975542;28;20363;-78
2023/09/06 10:49:13;;;;;;;;;;;;;;;;;;4975785;28;20473;-79
2023/09/06 10:51:57;;;;;;;27.40;8.32;;;;;;;;;;4975115;28;19918;-79
2023/09/06 10:54:35;;;;;;;27.20;7.20;;;;;;;;;;4975431;28;20043;-80
2023/09/06 10:57:13;;;;;;;20.58;7.40;;;;;;;;;;4975055;28;20054;-78
2023/09/06 10:59:56;;;;;;;19.58;6.05;;;;;;;;;;4958435;28;20414;-79
2023/09/06 11:02:26;;;;;;;32.75;8.57;;;;;;;;;;4975302;28;20352;-80
2023/09/06 11:05:09;;;;;;;33.92;7.63;;;;;;;;;;4975037;28;20050;-80
2023/09/06 11:07:45;;;;;;;24.80;6.95;;;;;;;;;;4946804;29;20051;-80
2023/09/06 11:10:25;;;;;;;27.15;7.25;;;;;;;;;;4968911;28;20047;-78
2023/09/06 11:12:58;;;;;;;20.73;5.85;;;;;;;;;;4974867;28;20075;-79
2023/09/06 11:15:36;;;;;;;28.55;5.70;;;;;;;;;;4955235;28;20058;-79
2023/09/06 11:18:07;;;;;;;23.60;6.00;;;;;;;;;;4961477;28;20039;-79
2023/09/06 11:20:39;;;;;;;14.80;6.10;;;;;;;;;;4955402;28;20043;-79
2023/09/06 11:23:10;;;;;;;17.35;4.97;;;;;;;;;;4973131;28;20034;-80
2023/09/06 11:25:41;;;;;;;17.65;4.93;;;;;;;;;;4972999;28;20053;-79
2023/09/06 11:28:17;;;;;;;11.40;4.68;;;;;;;;;;4952933;28;20466;-78
2023/09/06 11:30:51;;;;;;;;;;;;;;;;;;4970968;28;20058;-79
2023/09/06 11:33:31;;;;;;;11.57;4.35;;;;;;;;;;4973319;28;19918;-79
2023/09/06 11:36:04;;;;;;;11.50;4.70;;;;;;;;;;4972166;28;20050;-77
2023/09/06 11:38:38;;;;;;;13.70;5.22;;;;;;;;;;4971298;28;20470;-78
2023/09/06 11:41:12;;;;;;;16.23;4.70;;;;;;;;;;4973068;28;20061;-78
2023/09/06 11:43:48;;;;;;;13.07;4.30;;;;;;;;;;4973099;28;20481;-79
2023/09/06 11:46:21;;;;;;;13.27;4.90;;;;;;;;;;4973198;28;20418;-80
2023/09/06 11:48:54;;;;;;;8.15;4.38;;;;;;;;;;4972411;28;20050;-79
2023/09/06 11:51:28;;;;;;;13.98;4.00;;;;;;;;;;4956415;28;20046;-80
2023/09/06 11:54:03;;;;;;;;;;;;;;;;;;4973761;28;20038;-80
2023/09/06 11:56:39;;;;;;;9.73;3.10;;;;;;;;;;4967168;28;19918;-79
2023/09/06 11:59:12;;;;;;;7.93;2.58;;;;;;;;;;4970696;28;20047;-79
2023/09/06 12:01:52;;;;;;;7.68;3.15;;;;;;;;;;4973190;28;20043;-79
2023/09/06 12:04:23;;;;;;;9.80;2.80;;;;;;;;;;4955493;28;20047;-76
2023/09/06 12:06:58;;;;;;;7.28;2.90;;;;;;;;;;4972871;28;20466;-78
2023/09/06 12:09:36;;;;;;;7.93;3.95;;;;;;;;;;4972486;28;20050;-80
2023/09/06 12:12:09;;;;;;;5.95;2.75;;;;;;;;;;4955444;28;20062;-78
2023/09/06 12:14:46;;;;;;;12.55;4.75;;;;;;;;;;4956311;28;20516;-79
2023/09/06 12:17:19;;;;;;;6.55;2.92;;;;;;;;;;4974418;28;20115;-82
2023/09/06 12:20:01;;;;;;;9.25;3.00;;;;;;;;;;4974410;28;20027;-81
2023/09/06 12:22:36;;;;;;;11.27;3.15;;;;;;;;;;4956047;28;20075;-79
2023/09/06 12:25:09;;;;;;;5.65;2.00;;;;;;;;;;4955370;28;20130;-80
2023/09/06 12:27:43;;;;;;;5.72;2.28;;;;;;;;;;4956436;28;20043;-79
2023/09/06 12:30:21;;;;;;;5.43;2.13;;;;;;;;;;4971433;28;20039;-78
2023/09/06 12:32:56;;;;;;;4.32;2.30;;;;;;;;;;4977720;28;20062;-80
2023/09/06 12:35:35;;;;;;;5.20;2.00;;;;;;;;;;4959413;28;20039;-79
2023/09/06 12:38:06;;;;;;;4.07;1.45;;;;;;;;;;4976721;28;20038;-79
2023/09/06 12:40:37;;;;;;;59.15;23.73;;;;;;;;;;4976770;28;20038;-80
2023/09/06 12:43:09;;;;;;;10.57;2.80;;;;;;;;;;4976574;28;20038;-81
2023/09/06 12:45:41;;;;;;;11.90;5.72;;;;;;;;;;4977218;28;20119;-82
2023/09/06 12:48:13;;;;;;;5.50;2.63;;;;;;;;;;4959391;28;20508;-81
2023/09/06 12:50:43;;;;;;;5.55;2.53;;;;;;;;;;4983512;28;20035;-81
2023/09/06 12:53:16;;;;;;;4.00;2.00;;;;;;;;;;4999991;28;20042;-79
2023/09/06 12:55:47;;;;;;;7.35;1.92;;;;;;;;;;4982969;28;20046;-79
2023/09/06 12:58:19;;;;;;;5.35;3.28;;;;;;;;;;4998736;28;20058;-80
2023/09/06 13:00:49;;;;;;;5.75;2.50;;;;;;;;;;4984284;28;20074;-81
2023/09/06 13:03:19;;;;;;;4.82;2.30;;;;;;;;;;5000991;28;20027;-82
2023/09/06 13:05:55;;;;;;;6.47;2.03;;;;;;;;;;4985618;28;20037;-79
2023/09/06 13:08:25;;;;;;;5.38;2.33;;;;;;;;;;4960023;28;20046;-79
2023/09/06 13:10:56;;;;;;;6.40;2.50;;;;;;;;;;4950855;28;20043;-78
2023/09/06 13:13:27;;;;;;;7.00;2.40;;;;;;;;;;4976164;28;20045;-78
2023/09/06 13:15:59;;;;;;;4.82;2.47;;;;;;;;;;4976095;28;20034;-78
2023/09/06 13:18:30;;;;;;;5.15;2.22;;;;;;;;;;4973919;28;20050;-78
2023/09/06 13:21:05;;;;;;;4.93;2.20;;;;;;;;;;4975358;28;20039;-79
2023/09/06 13:23:35;;;;;;;3.92;2.10;;;;;;;;;;4975397;28;20508;-79
2023/09/06 13:26:06;;;;;;;5.22;2.30;;;;;;;;;;4975202;28;20504;-80
2023/09/06 13:28:39;;;;;;;4.88;2.03;;;;;;;;;;4975668;28;20047;-78
2023/09/06 13:31:10;;;;;;;7.97;4.03;;;;;;;;;;4974818;28;20480;-79
2023/09/06 13:33:43;;;;;;;5.15;2.47;;;;;;;;;;4957570;28;20051;-80
2023/09/06 13:36:18;;;;;;;6.78;2.30;;;;;;;;;;4975046;28;20038;-79
2023/09/06 13:38:50;;;;;;;4.95;2.65;;;;;;;;;;4975862;28;20057;-81
2023/09/06 13:41:22;;;;;;;5.03;1.95;;;;;;;;;;4974726;28;20038;-80
2023/09/06 13:43:51;;;;;;;7.40;2.17;;;;;;;;;;4975152;28;20378;-80
2023/09/06 13:46:23;;;;;;;5.70;2.22;;;;;;;;;;4957474;28;20076;-78
2023/09/06 13:48:58;;;;;;;4.85;2.10;;;;;;;;;;4956638;28;20053;-80
2023/09/06 13:51:29;;;;;;;4.18;2.20;;;;;;;;;;4972272;28;20039;-79
2023/09/06 13:53:59;;;;;;;5.82;2.20;;;;;;;;;;4973810;28;20039;-78
2023/09/06 13:56:30;;;;;;;3.00;1.55;;;;;;;;;;4975145;28;20054;-77
2023/09/06 13:59:05;;;;;;;9.75;2.13;;;;;;;;;;4974869;28;20049;-80
2023/09/06 14:01:37;;;;;;;7.13;3.35;;;;;;;;;;4974651;28;20520;-79
2023/09/06 14:04:08;;;;;;;6.00;2.20;;;;;;;;;;4974720;28;20053;-81
2023/09/06 14:06:38;;;;;;;5.82;2.78;;;;;;;;;;4957992;28;20042;-80
2023/09/06 14:09:12;;;;;;;5.28;2.17;;;;;;;;;;4974834;28;20131;-81
2023/09/06 14:11:42;;;;;;;5.22;1.60;;;;;;;;;;4975177;28;20042;-80
2023/09/06 14:14:16;;;;;;;4.53;2.30;;;;;;;;;;4975129;28;20511;-82
2023/09/06 14:16:46;;;;;;;6.40;2.08;;;;;;;;;;4974766;28;20042;-81
2023/09/06 14:19:16;;;;;;;5.82;1.90;;;;;;;;;;4973954;28;20039;-80
2023/09/06 14:21:47;;;;;;;5.50;2.30;;;;;;;;;;4938858;29;20501;-80
2023/09/06 14:24:19;;;;;;;5.03;2.15;;;;;;;;;;4937407;29;20394;-82
2023/09/06 14:26:50;;;;;;;6.25;1.67;;;;;;;;;;4952859;28;20038;-80
2023/09/06 14:29:20;;;;;;;5.47;2.30;;;;;;;;;;4957804;28;20050;-81
2023/09/06 14:31:52;;;;;;;5.63;2.03;;;;;;;;;;4975109;28;20474;-82
2023/09/06 14:34:27;;;;;;;3.63;1.90;;;;;;;;;;4960506;28;20061;-79
2023/09/06 14:37:00;;;;;;;4.97;1.92;;;;;;;;;;4954751;29;20479;-80
2023/09/06 14:39:38;;;;;;;4.57;1.92;;;;;;;;;;4948731;28;20042;-80
2023/09/06 14:42:08;;;;;;;4.30;2.10;;;;;;;;;;4973976;28;20051;-81
2023/09/06 14:44:39;;;;;;;6.85;1.95;;;;;;;;;;4957350;28;20385;-81
2023/09/06 14:47:12;;;;;;;6.60;2.50;;;;;;;;;;4973909;28;20034;-82
2023/09/06 14:49:46;;;;;;;5.53;2.42;;;;;;;;;;4957478;28;20050;-80
2023/09/06 14:52:16;;;;;;;3.78;2.05;;;;;;;;;;4973464;28;20039;-80
2023/09/06 14:54:48;;;;;;;3.75;2.17;;;;;;;;;;4972938;28;20058;-80
2023/09/06 14:57:21;;;;;;;3.78;1.90;;;;;;;;;;4972709;28;20030;-79
2023/09/06 14:59:54;;;;;;;3.70;1.80;;;;;;;;;;4972539;28;20046;-79
2023/09/06 15:02:24;;;;;;;4.85;2.22;;;;;;;;;;4974415;28;20053;-80
2023/09/06 15:04:55;;;;;;;4.47;2.65;;;;;;;;;;4974418;28;20126;-82
2023/09/06 15:07:31;;;;;;;3.00;1.33;;;;;;;;;;4958117;28;20363;-79
2023/09/06 15:10:03;;;;;;;5.70;1.95;;;;;;;;;;4975159;28;20051;-80
2023/09/06 15:12:35;;;;;;;4.93;1.92;;;;;;;;;;4975554;28;20038;-80
2023/09/06 15:15:09;;;;;;;3.05;1.20;;;;;;;;;;4974913;28;20046;-80
2023/09/06 15:17:46;;;;;;;3.78;1.90;;;;;;;;;;4975078;28;20485;-81
2023/09/06 15:20:19;;;;;;;3.22;1.63;;;;;;;;;;4974405;28;20047;-83
2023/09/06 15:22:51;;;;;;;;;;;;;;;;;;4975632;28;20038;-80